Airfield :
LOGIN :

Register | Disclaimer

   EN    FR    IT 

 










Legend :    VFR   Marginal VFR   IFR   Intensive IFR   Very Intensive IFR
Visi :
Ceiling :
>= 8 km
>= 3000ft
5 to 8 km
1000 to 3000 ft
1500m to 5 km
500 to 1000 ft
800 to 1500m
200 to 500 ft
< 800m
< 200 ft
Symbols :   Thunderstorms  Fog  Heavy snow  Heavy precipitations  Wind > 20 kt
SIGMETs :     Misc.  Thunderstorms  Icing  Turbulence  Mountain Waves  Volcanic Ashes






- Airport Elevation : 856 ft
- IATA code : VGO


LEVX - Vigo Peinador

CURRENT METAR :
  • 021600Z 36015KT 330V030 9999 FEW050 17/08 Q1015 NOSIG

EXPIRED METARs :
  • 021530Z 35014KT 320V030 9999 FEW050 18/08 Q1015 NOSIG
  • 021500Z 36011KT 330V060 9999 FEW050 18/08 Q1015 NOSIG
  • 021430Z 36011KT 330V030 9999 SCT048 18/08 Q1015 NOSIG
  • 021400Z 35008KT 300V040 9999 SCT048 19/09 Q1015 NOSIG
  • 021330Z 01005KT 270V080 9999 SCT049 18/08 Q1015 NOSIG

TAF TAF LEVX
Valid from the 02 at 12:00 until the 03 at 12:00 UTC


021100Z 0212/0312 01009KT 9999 BKN030 TX17/0215Z TN06/0306Z
PROB30
TEMPO 0212/0218 29010KT



MET'MAP, your aeronautical weather chart ! - Copyright ORBIFLY December 2007 - Disclaimer

ORBIFLY MET'MAP TEAM :

Programming & Development : Alexandra Zaïnal
Concept & original design : Baudouin d'Aumeries
Assistance for programming : Marc-Olivier Méhu
Technical & hardware support : Manuel Goepfert

Contact : metmap@orbifly.com




SOURCES & CREDITS :

   NOAA